Time;durP1;ratioP1;P1;durP2;ratioP2;P2;SDS_P1;SDS_P2;PMS_P1;PMS_P2;Temp;Humidity;BMP_temperature;BMP_pressure;BME280_temperature;BME280_humidity;BME280_pressure;Samples;Min_cycle;Max_cycle;Signal;HPM_P1;HPM_P2
2023/06/02 00:01:14;;;;;;;;;14.50;13.50;;;;;21.16;42.87;98362.69;7699256;22;96329;-68
2023/06/02 00:04:23;;;;;;;;;15.80;14.80;;;;;21.05;43.25;98347.53;7672315;22;96599;-68
2023/06/02 00:07:27;;;;;;;;;20.20;20.20;;;;;21.03;43.02;98355.25;7671263;22;98313;-67
2023/06/02 00:10:31;;;;;;;;;16.40;14.40;;;;;20.93;43.41;98352.69;7698596;22;96523;-67
2023/06/02 00:13:35;;;;;;;;;16.60;15.00;;;;;20.95;43.22;98358.69;7645677;22;97767;-67
2023/06/02 00:16:45;;;;;;;;;17.00;16.00;;;;;20.92;43.43;98362.84;7672676;22;96534;-67
2023/06/02 00:19:48;;;;;;;;;17.80;15.80;;;;;20.91;43.69;98379.59;7647116;22;97014;-68
2023/06/02 00:22:52;;;;;;;;;19.00;18.33;;;;;20.80;44.16;98364.44;7670879;22;96457;-66
2023/06/02 00:25:57;;;;;;;;;18.00;17.40;;;;;20.66;44.16;98364.41;7670028;22;99321;-67
2023/06/02 00:29:01;;;;;;;;;18.20;17.40;;;;;20.61;44.32;98359.00;7698436;22;96673;-66
2023/06/02 00:32:05;;;;;;;;;18.40;16.00;;;;;20.49;45.06;98364.94;7671747;22;96397;-68
2023/06/02 00:35:09;;;;;;;;;17.00;15.00;;;;;20.30;45.71;98355.91;7673791;22;96664;-66
2023/06/02 00:38:13;;;;;;;;;16.50;15.50;;;;;20.18;45.91;98358.31;7696693;22;97677;-68
2023/06/02 00:41:17;;;;;;;;;16.75;15.00;;;;;20.10;45.64;98358.97;7697214;22;98515;-67
2023/06/02 00:44:21;;;;;;;;;15.00;14.00;;;;;20.10;45.47;98356.22;7697425;22;98312;-68
2023/06/02 00:47:24;;;;;;;;;15.80;15.20;;;;;20.02;45.35;98354.16;7697737;22;96657;-66
2023/06/02 00:50:28;;;;;;;;;14.00;14.00;;;;;20.01;45.34;98358.00;7697696;22;96467;-67
2023/06/02 00:53:32;;;;;;;;;15.00;14.00;;;;;20.03;45.49;98361.28;7671706;22;98288;-68
2023/06/02 00:56:39;;;;;;;;;14.80;13.80;;;;;20.08;45.42;98361.19;7699236;22;96957;-67
2023/06/02 00:59:42;;;;;;;;;14.40;12.40;;;;;20.11;45.76;98366.88;7699447;22;96955;-68
2023/06/02 01:02:47;;;;;;;;;15.60;15.00;;;;;20.08;45.92;98359.28;7670419;22;96765;-68
2023/06/02 01:05:55;;;;;;;;;12.00;11.00;;;;;20.06;45.85;98360.66;7671638;22;96646;-67
2023/06/02 01:09:00;;;;;;;;;18.25;17.00;;;;;19.99;46.17;98363.75;7671771;22;98114;-68
2023/06/02 01:12:06;;;;;;;;;18.00;16.00;;;;;19.95;46.13;98367.38;7698749;22;96955;-68
2023/06/02 01:15:10;;;;;;;;;18.00;16.00;;;;;19.99;46.13;98366.50;7697344;22;96625;-67
2023/06/02 01:18:15;;;;;;;;;14.50;14.00;;;;;19.97;46.27;98360.53;7697813;22;97101;-67
2023/06/02 01:21:23;;;;;;;;;15.00;14.00;;;;;19.91;46.30;98356.22;7698839;22;97372;-67
2023/06/02 01:24:31;;;;;;;;;15.60;15.00;;;;;19.93;46.68;98361.41;7699264;22;96325;-67
2023/06/02 01:27:35;;;;;;;;;16.00;15.00;;;;;19.88;46.87;98357.66;7699475;22;96540;-68
2023/06/02 01:30:38;;;;;;;;;18.00;16.00;;;;;19.88;47.03;98354.91;7670755;22;98256;-67
2023/06/02 01:33:48;;;;;;;;;13.00;12.00;;;;;19.86;46.67;98348.91;7697527;22;96407;-67
2023/06/02 01:36:58;;;;;;;;;16.40;15.00;;;;;19.84;46.83;98356.56;7697085;22;97145;-67
2023/06/02 01:40:03;;;;;;;;;20.20;19.60;;;;;19.80;47.30;98357.47;7696937;22;97976;-68
2023/06/02 01:43:08;;;;;;;;;16.40;16.00;;;;;19.75;47.56;98352.06;7697151;22;96857;-67
2023/06/02 01:46:12;;;;;;;;;17.00;15.25;;;;;19.69;47.77;98351.34;7698645;22;96357;-68
2023/06/02 01:49:17;;;;;;;;;17.20;15.80;;;;;19.67;47.96;98356.28;7697727;22;96485;-68
2023/06/02 01:52:20;;;;;;;;;21.50;20.00;;;;;19.62;47.97;98361.81;7670446;22;99320;-68
2023/06/02 01:55:25;;;;;;;;;16.00;15.00;;;;;19.63;48.11;98366.19;7671040;22;96657;-67
2023/06/02 01:58:28;;;;;;;;;18.00;17.60;;;;;19.62;48.05;98367.28;7697361;22;96505;-67
2023/06/02 02:01:33;;;;;;;;;17.50;16.50;;;;;19.60;48.24;98352.25;7697285;22;96599;-68
2023/06/02 02:04:40;;;;;;;;;17.00;16.00;;;;;19.51;48.59;98354.84;7698390;22;97402;-67
2023/06/02 02:07:44;;;;;;;;;17.00;16.00;;;;;19.53;49.00;98358.09;7696819;22;96979;-68
2023/06/02 02:10:48;;;;;;;;;18.00;17.60;;;;;19.48;49.24;98362.81;7697112;22;96775;-67
2023/06/02 02:13:52;;;;;;;;;18.75;18.00;;;;;19.43;49.13;98367.22;7698503;22;96618;-67
2023/06/02 02:16:55;;;;;;;;;19.67;18.00;;;;;19.36;49.15;98366.72;7696556;22;96985;-68
2023/06/02 02:19:58;;;;;;;;;19.00;18.25;;;;;19.32;49.27;98373.06;7696724;22;97547;-67
2023/06/02 02:23:02;;;;;;;;;19.00;18.00;;;;;19.32;49.43;98378.53;7696644;22;96821;-67
2023/06/02 02:26:08;;;;;;;;;20.00;17.40;;;;;19.29;49.63;98376.41;7696002;22;96802;-67
2023/06/02 02:29:12;;;;;;;;;15.00;14.00;;;;;19.26;49.77;98376.97;7695460;22;96342;-67
2023/06/02 02:32:15;;;;;;;;;15.60;14.60;;;;;19.20;49.89;98381.69;7694410;22;97145;-67
2023/06/02 02:35:18;;;;;;;;;18.40;18.00;;;;;19.04;50.27;98370.09;7693498;22;97060;-67
2023/06/02 02:38:22;;;;;;;;;16.50;16.50;;;;;19.06;50.13;98388.94;7695021;22;96437;-67
2023/06/02 02:41:27;;;;;;;;;18.60;18.60;;;;;18.90;51.05;98374.63;7696487;22;96823;-66
2023/06/02 02:44:30;;;;;;;;;20.60;19.60;;;;;18.87;51.39;98390.75;7698217;22;96741;-67
2023/06/02 02:47:34;;;;;;;;;16.40;16.00;;;;;18.83;51.36;98389.69;7696425;22;97543;-67
2023/06/02 02:50:37;;;;;;;;;20.00;18.40;;;;;18.81;51.49;98391.94;7698427;22;96370;-67
2023/06/02 02:53:41;;;;;;;;;17.00;16.00;;;;;18.79;51.76;98394.13;7698684;22;96304;-67
2023/06/02 02:56:46;;;;;;;;;17.00;16.00;;;;;18.78;52.46;98400.66;7697863;22;98289;-68
2023/06/02 02:59:50;;;;;;;;;21.20;19.80;;;;;18.79;52.30;98403.13;7698396;22;96328;-67
2023/06/02 03:02:55;;;;;;;;;17.00;16.40;;;;;18.74;52.75;98400.44;7697364;22;96971;-68
2023/06/02 03:06:01;;;;;;;;;21.00;21.00;;;;;18.77;52.29;98399.84;7697038;22;96490;-68
2023/06/02 03:09:05;;;;;;;;;19.60;18.60;;;;;18.76;53.06;98409.16;7698481;22;96360;-68
2023/06/02 03:12:10;;;;;;;;;18.80;17.80;;;;;18.76;52.87;98400.16;7699507;22;96524;-67
2023/06/02 03:15:15;;;;;;;;;20.60;17.00;;;;;18.80;52.84;98409.41;7698060;22;96517;-68
2023/06/02 03:18:18;;;;;;;;;18.00;17.00;;;;;18.82;52.68;98399.81;7698207;22;96547;-67
2023/06/02 03:21:22;;;;;;;;;21.60;19.60;;;;;18.88;52.78;98412.31;7697176;22;97953;-67
2023/06/02 03:24:26;;;;;;;;;18.20;17.00;;;;;18.91;52.98;98414.47;7697844;22;96952;-67
2023/06/02 03:27:33;;;;;;;;;18.33;18.00;;;;;18.97;52.65;98423.44;7697430;22;96556;-68
2023/06/02 03:30:37;;;;;;;;;18.80;18.00;;;;;18.98;52.88;98425.91;7671030;22;96942;-67
2023/06/02 03:33:41;;;;;;;;;20.00;19.60;;;;;19.07;52.41;98425.25;7698678;22;96533;-67
2023/06/02 03:36:44;;;;;;;;;19.20;17.60;;;;;19.11;52.73;98427.13;7696740;22;96881;-67
2023/06/02 03:39:48;;;;;;;;;18.75;17.75;;;;;19.18;52.40;98426.78;7697102;22;96572;-66
2023/06/02 03:42:55;;;;;;;;;17.50;17.00;;;;;19.22;52.48;98431.41;7696706;22;96372;-67
2023/06/02 03:45:58;;;;;;;;;22.00;19.40;;;;;19.32;52.23;98435.94;7697644;22;96852;-67
2023/06/02 03:49:02;;;;;;;;;22.00;21.00;;;;;19.36;51.98;98440.53;7697775;22;96380;-67
2023/06/02 03:52:06;;;;;;;;;21.20;20.80;;;;;19.39;52.17;98442.72;7671239;22;98254;-67
2023/06/02 03:55:10;;;;;;;;;19.50;17.00;;;;;19.44;51.64;98447.34;7691216;22;96367;-67
2023/06/02 03:58:17;;;;;;;;;17.00;17.00;;;;;19.52;51.52;98457.63;7670211;22;97182;-67
2023/06/02 04:01:21;;;;;;;;;18.60;17.00;;;;;19.55;51.15;98462.50;7694681;22;96534;-66
2023/06/02 04:04:26;;;;;;;;;18.00;17.60;;;;;19.56;51.17;98452.38;7697585;22;96634;-67
2023/06/02 04:07:30;;;;;;;;;15.00;15.00;;;;;19.63;50.74;98448.22;7693904;22;96991;-66
2023/06/02 04:10:34;;;;;;;;;16.40;15.00;;;;;19.62;50.96;98452.06;7667469;22;98308;-67
2023/06/02 04:13:39;;;;;;;;;15.00;14.40;;;;;19.73;50.76;98463.69;7696109;22;96980;-68
2023/06/02 04:16:43;;;;;;;;;15.40;15.00;;;;;19.84;50.73;98466.00;7695647;22;96182;-67
2023/06/02 04:19:48;;;;;;;;;16.40;15.60;;;;;19.86;50.67;98463.78;7696037;22;96263;-68
2023/06/02 04:22:51;;;;;;;;;16.20;14.20;;;;;19.94;50.19;98459.59;7696168;22;96284;-67
2023/06/02 04:25:55;;;;;;;;;17.00;15.00;;;;;19.98;50.29;98470.78;7695655;22;96489;-68
2023/06/02 04:29:00;;;;;;;;;16.00;15.00;;;;;19.97;50.53;98475.44;7695890;22;96438;-68
2023/06/02 04:32:03;;;;;;;;;19.00;17.60;;;;;19.97;50.92;98478.19;7694451;22;96454;-68
2023/06/02 04:35:08;;;;;;;;;17.60;17.60;;;;;20.01;50.57;98478.41;7692514;22;96478;-68
2023/06/02 04:38:13;;;;;;;;;16.00;15.00;;;;;20.05;50.78;98476.69;7643088;22;97102;-67
2023/06/02 04:41:18;;;;;;;;;17.40;16.40;;;;;20.15;50.74;98476.56;7669264;22;96294;-67
2023/06/02 04:44:22;;;;;;;;;20.40;18.60;;;;;20.06;51.31;98478.34;7670283;22;96639;-66
2023/06/02 04:47:27;;;;;;;;;18.00;17.00;;;;;20.09;51.21;98475.81;7669335;22;96865;-67
2023/06/02 04:50:30;;;;;;;;;20.40;18.80;;;;;20.10;51.74;98480.19;7670853;22;96490;-68
2023/06/02 04:53:34;;;;;;;;;20.00;19.00;;;;;20.18;51.89;98482.25;7670844;22;98465;-68
2023/06/02 04:56:37;;;;;;;;;22.40;19.40;;;;;20.21;52.04;98476.22;7696812;22;96489;-68
2023/06/02 04:59:46;;;;;;;;;20.50;19.00;;;;;20.20;51.75;98479.25;7671463;22;96389;-68
2023/06/02 05:02:50;;;;;;;;;19.00;18.50;;;;;20.20;51.66;98480.06;7669882;22;96226;-68
2023/06/02 05:05:54;;;;;;;;;20.00;17.50;;;;;20.36;51.53;98477.97;7643335;22;96969;-66
2023/06/02 05:08:59;;;;;;;;;22.00;20.50;;;;;20.43;51.31;98488.56;7670219;22;96495;-67
2023/06/02 05:12:03;;;;;;;;;23.60;21.00;;;;;20.52;51.49;98481.31;7670400;22;96513;-68
2023/06/02 05:15:09;;;;;;;;;22.25;19.25;;;;;20.60;50.78;98488.84;7671608;22;96254;-67
2023/06/02 05:18:14;;;;;;;;;19.00;18.60;;;;;20.68;50.51;98478.03;7671493;22;96175;-68
2023/06/02 05:21:18;;;;;;;;;22.00;19.60;;;;;20.81;50.49;98481.97;7670464;22;96398;-68
2023/06/02 05:24:23;;;;;;;;;20.00;19.00;;;;;20.88;50.22;98476.06;7671278;22;96283;-68
2023/06/02 05:27:26;;;;;;;;;21.00;20.00;;;;;20.95;50.13;98484.75;7697855;22;96516;-68
2023/06/02 05:30:31;;;;;;;;;19.00;19.00;;;;;20.97;50.32;98482.50;7645122;22;98490;-68
2023/06/02 05:33:35;;;;;;;;;22.60;20.00;;;;;21.12;49.60;98493.22;7696577;22;96524;-68
2023/06/02 05:36:40;;;;;;;;;23.60;21.60;;;;;21.14;49.69;98488.28;7692951;22;96278;-68
2023/06/02 05:39:43;;;;;;;;;19.20;18.00;;;;;21.08;50.09;98495.75;7696514;22;97083;-68
2023/06/02 05:42:48;;;;;;;;;27.00;25.00;;;;;21.11;49.69;98492.41;7670908;22;96784;-68
2023/06/02 05:45:54;;;;;;;;;18.50;18.00;;;;;21.24;49.85;98493.59;7696919;22;96167;-67
2023/06/02 05:48:58;;;;;;;;;24.00;22.40;;;;;21.39;49.02;98500.75;7696902;22;96788;-68
2023/06/02 05:52:03;;;;;;;;;21.00;18.75;;;;;21.59;49.04;98490.22;7696755;22;97455;-68
2023/06/02 05:55:07;;;;;;;;;21.00;20.00;;;;;21.71;49.05;98506.19;7697113;22;96969;-67
2023/06/02 05:58:11;;;;;;;;;20.00;18.00;;;;;21.81;47.90;98494.19;7698238;22;96121;-68
2023/06/02 06:01:16;;;;;;;;;15.40;13.20;;;;;21.95;47.27;98497.78;7671665;22;96565;-67
2023/06/02 06:04:20;;;;;;;;;20.20;18.80;;;;;22.03;47.29;98508.06;7698130;22;96285;-68
2023/06/02 06:07:24;;;;;;;;;20.00;19.00;;;;;22.10;47.52;98502.16;7697177;22;96311;-68
2023/06/02 06:10:27;;;;;;;;;16.40;15.40;;;;;22.28;46.74;98502.06;7696203;22;96694;-68
2023/06/02 06:13:31;;;;;;;;;17.40;16.20;;;;;22.38;45.92;98498.28;7670863;22;98820;-68
2023/06/02 06:16:38;;;;;;;;;15.25;14.00;;;;;22.50;45.27;98505.97;7697088;22;96275;-68
2023/06/02 06:19:41;;;;;;;;;15.00;13.00;;;;;22.73;45.39;98504.91;7723150;22;97420;-68
2023/06/02 06:22:44;;;;;;;;;16.00;14.33;;;;;22.69;45.41;98496.44;7698825;22;96224;-68
2023/06/02 06:25:48;;;;;;;;;15.60;15.60;;;;;22.73;44.96;98502.16;7696665;22;96566;-68
2023/06/02 06:28:52;;;;;;;;;17.40;17.00;;;;;22.83;45.02;98501.94;7697814;22;96270;-68
2023/06/02 06:31:57;;;;;;;;;15.00;14.60;;;;;23.05;45.30;98512.94;7697403;22;96408;-69
2023/06/02 06:35:01;;;;;;;;;14.00;13.00;;;;;23.30;43.19;98514.25;7699524;22;96280;-69
2023/06/02 06:38:04;;;;;;;;;14.33;11.33;;;;;23.51;41.95;98520.06;7699808;22;96195;-68
2023/06/02 06:41:08;;;;;;;;;15.00;15.00;;;;;23.70;41.56;98515.19;7673194;22;96261;-69
2023/06/02 06:44:12;;;;;;;;;13.00;13.00;;;;;23.85;40.72;98520.25;7672981;22;96206;-69
2023/06/02 06:47:17;;;;;;;;;15.00;13.33;;;;;23.91;40.87;98507.16;7673147;22;96303;-68
2023/06/02 06:50:20;;;;;;;;;12.75;12.00;;;;;24.14;40.37;98523.28;7698524;22;96479;-68
2023/06/02 06:53:24;;;;;;;;;13.80;13.80;;;;;24.19;38.13;98521.56;7700247;22;96199;-68
2023/06/02 06:56:27;;;;;;;;;15.80;14.20;;;;;24.30;39.08;98526.44;7672800;22;96372;-68
2023/06/02 06:59:31;;;;;;;;;12.60;12.60;;;;;24.38;37.97;98527.59;7699806;22;96125;-68
2023/06/02 07:02:35;;;;;;;;;13.00;11.00;;;;;24.51;37.40;98530.22;7672942;22;96159;-68
2023/06/02 07:05:39;;;;;;;;;13.80;12.20;;;;;24.58;37.16;98530.53;7699628;22;96691;-68
2023/06/02 07:08:42;;;;;;;;;14.00;13.00;;;;;24.72;37.44;98527.66;7699079;22;96591;-68
2023/06/02 07:11:46;;;;;;;;;12.60;12.40;;;;;24.86;37.16;98544.88;7671651;22;96411;-68
2023/06/02 07:14:50;;;;;;;;;13.00;13.00;;;;;24.87;36.66;98545.72;7697881;22;96836;-68
2023/06/02 07:17:55;;;;;;;;;13.00;11.00;;;;;24.83;36.78;98536.41;7699000;22;96209;-68
2023/06/02 07:20:59;;;;;;;;;12.50;11.50;;;;;24.83;36.28;98541.94;7698239;22;96460;-67
2023/06/02 07:24:03;;;;;;;;;10.00;8.00;;;;;25.02;36.64;98539.72;7697244;22;96459;-67
2023/06/02 07:27:06;;;;;;;;;10.00;9.00;;;;;25.32;35.30;98541.47;7697386;22;96800;-68
2023/06/02 07:30:10;;;;;;;;;11.00;10.00;;;;;25.60;33.90;98530.91;7697962;22;96483;-68
2023/06/02 07:33:15;;;;;;;;;10.00;10.00;;;;;26.00;34.60;98531.41;7670101;22;97565;-67
2023/06/02 07:36:18;;;;;;;;;9.20;9.00;;;;;26.33;33.39;98539.91;7662370;22;97735;-69
2023/06/02 07:39:21;;;;;;;;;8.00;7.00;;;;;26.54;32.49;98537.16;7698402;22;98490;-68
2023/06/02 07:42:25;;;;;;;;;12.00;10.00;;;;;26.63;32.66;98544.25;7699999;22;96175;-68
2023/06/02 07:45:28;;;;;;;;;12.00;10.00;;;;;26.79;32.18;98538.97;7698625;22;96550;-68
2023/06/02 07:48:33;;;;;;;;;10.40;10.00;;;;;26.39;33.00;98551.59;7698150;22;98685;-68
2023/06/02 07:51:36;;;;;;;;;11.00;10.00;;;;;26.40;32.84;98548.47;7699790;22;96405;-69
2023/06/02 07:54:40;;;;;;;;;8.00;8.00;;;;;26.53;32.90;98550.22;7699277;22;96236;-68
2023/06/02 07:57:44;;;;;;;;;11.00;10.00;;;;;26.72;32.14;98550.56;7697632;22;97762;-68
2023/06/02 08:00:47;;;;;;;;;7.50;7.50;;;;;27.00;32.54;98555.59;7699769;22;96751;-69
2023/06/02 08:03:52;;;;;;;;;9.00;8.67;;;;;27.28;32.39;98545.59;7697172;22;98193;-69
2023/06/02 08:06:56;;;;;;;;;10.00;8.00;;;;;27.65;32.11;98541.03;7699435;22;96754;-68
2023/06/02 08:10:00;;;;;;;;;9.00;9.00;;;;;27.87;31.68;98548.91;7699616;22;97003;-69
2023/06/02 08:13:03;;;;;;;;;9.25;9.00;;;;;28.00;31.75;98539.47;7699476;22;96221;-69
2023/06/02 08:16:07;;;;;;;;;11.60;11.40;;;;;28.14;31.21;98541.16;7700181;22;96247;-66
2023/06/02 08:19:17;;;;;;;;;8.75;8.00;;;;;28.11;30.81;98539.00;7697191;22;96532;-66
2023/06/02 08:22:20;;;;;;;;;9.00;8.40;;;;;27.90;30.24;98495.59;7699454;22;96795;-66
2023/06/02 08:25:24;;;;;;;;;8.25;7.50;;;;;27.93;29.67;98539.25;7697594;22;96298;-66
2023/06/02 08:28:29;;;;;;;;;9.00;8.00;;;;;27.73;29.95;98542.88;7697909;22;98378;-66
2023/06/02 08:31:32;;;;;;;;;8.00;7.00;;;;;27.89;30.10;98545.81;7697968;22;97343;-66
2023/06/02 08:34:41;;;;;;;;;9.00;8.00;;;;;28.23;30.32;98545.41;7671061;22;98459;-66
2023/06/02 08:37:44;;;;;;;;;6.00;6.00;;;;;28.15;29.31;98542.78;7697922;22;96241;-66
2023/06/02 08:40:48;;;;;;;;;8.00;7.60;;;;;28.49;29.82;98539.53;7671875;22;98405;-65
2023/06/02 08:43:53;;;;;;;;;7.60;7.40;;;;;28.73;28.63;98538.72;7699234;22;96281;-66
2023/06/02 08:46:57;;;;;;;;;7.00;6.00;;;;;29.00;29.23;98546.28;7671408;22;98090;-66
2023/06/02 08:50:03;;;;;;;;;7.20;6.20;;;;;29.34;28.44;98549.66;7699230;22;96456;-66
2023/06/02 08:53:12;;;;;;;;;12.80;11.00;;;;;29.62;27.84;98548.47;7671632;22;96999;-66
2023/06/02 08:56:16;;;;;;;;;7.00;7.00;;;;;29.73;28.62;98545.19;7647049;22;96671;-66
2023/06/02 08:59:20;;;;;;;;;9.60;9.00;;;;;29.66;27.85;98548.59;7699124;22;96338;-66
2023/06/02 09:02:23;;;;;;;;;10.00;8.50;;;;;29.35;28.19;98542.94;7698909;22;96220;-66
2023/06/02 09:05:31;;;;;;;;;11.00;9.00;;;;;29.07;29.52;98545.69;7698771;22;96617;-66
2023/06/02 09:08:35;;;;;;;;;9.50;9.00;;;;;29.16;28.79;98538.84;7699722;22;96681;-66
2023/06/02 09:11:39;;;;;;;;;12.00;10.00;;;;;29.48;28.40;98544.50;7699333;22;96308;-65
2023/06/02 09:14:42;;;;;;;;;12.00;11.00;;;;;29.41;28.64;98547.91;7699109;22;96789;-66
2023/06/02 09:17:45;;;;;;;;;9.00;8.00;;;;;29.41;28.81;98539.59;7698761;22;96248;-66
2023/06/02 09:20:50;;;;;;;;;10.00;9.00;;;;;29.42;28.48;98530.06;7698470;22;97418;-65
2023/06/02 09:23:55;;;;;;;;;10.00;9.00;;;;;29.71;28.28;98551.91;7671439;22;99148;-66
2023/06/02 09:27:16;;;;;;;;;9.00;8.00;;;;;30.16;28.27;98530.44;7670514;22;96676;-66
2023/06/02 09:30:20;;;;;;;;;9.25;9.00;;;;;30.29;28.11;98543.91;7699433;22;96847;-66
2023/06/02 09:33:23;;;;;;;;;10.40;9.80;;;;;30.09;27.55;98537.47;7698615;22;96826;-65
2023/06/02 09:36:30;;;;;;;;;10.60;9.60;;;;;29.99;27.24;98535.22;7702935;22;96225;-65
2023/06/02 09:39:34;;;;;;;;;10.40;9.00;;;;;29.98;27.98;98541.13;7735454;22;96797;-66
2023/06/02 09:42:44;;;;;;;;;8.00;8.00;;;;;30.02;27.22;98537.28;7736709;22;96275;-66
2023/06/02 09:46:01;;;;;;;;;10.20;9.00;;;;;30.25;26.96;98539.44;7736759;22;96254;-66
2023/06/02 09:49:05;;;;;;;;;9.00;9.00;;;;;29.95;27.71;98547.41;7737287;22;96825;-66
2023/06/02 09:52:15;;;;;;;;;8.80;8.00;;;;;29.76;27.17;98525.03;7709437;22;96908;-66
2023/06/02 09:55:19;;;;;;;;;10.25;10.00;;;;;29.96;27.42;98541.47;7709708;22;96231;-66
2023/06/02 09:58:22;;;;;;;;;11.50;11.25;;;;;29.87;27.22;98542.78;7710060;22;96708;-66
2023/06/02 10:01:26;;;;;;;;;12.00;11.00;;;;;29.78;27.63;98542.97;7708697;22;98483;-65
2023/06/02 10:04:29;;;;;;;;;11.40;10.40;;;;;29.82;27.95;98541.06;7737001;22;96804;-66
2023/06/02 10:07:56;;;;;;;;;9.00;8.00;;;;;29.98;27.73;98546.69;7736684;22;96380;-66
2023/06/02 10:11:10;;;;;;;;;13.00;12.40;;;;;30.01;27.26;98538.44;7681797;22;98504;-66
2023/06/02 10:14:34;;;;;;;;;11.00;11.00;;;;;29.65;28.05;98553.34;7735503;22;96905;-66
2023/06/02 10:17:49;;;;;;;;;15.00;14.00;;;;;29.58;27.97;98546.78;7736604;22;96197;-65
2023/06/02 10:21:05;;;;;;;;;10.00;10.00;;;;;29.31;28.83;98544.81;7709654;22;96636;-66
2023/06/02 10:24:25;;;;;;;;;11.00;10.00;;;;;29.09;28.06;98544.16;7736191;22;96322;-66
2023/06/02 10:27:33;;;;;;;;;14.00;14.00;;;;;28.94;29.08;98550.44;7735945;22;96249;-66
2023/06/02 10:30:37;;;;;;;;;12.00;11.40;;;;;28.91;29.50;98553.13;7681501;22;98238;-66
2023/06/02 10:33:45;;;;;;;;;11.00;10.50;;;;;28.88;28.96;98556.63;7736041;22;96315;-66
2023/06/02 10:37:16;;;;;;;;;12.60;11.00;;;;;28.89;29.94;98556.25;7699948;22;97171;-66
2023/06/02 10:40:49;;;;;;;;;12.00;11.00;;;;;28.67;29.60;98567.81;7577327;22;97760;-66
2023/06/02 10:44:20;;;;;;;;;8.80;8.20;;;;;28.46;29.75;98559.63;7698640;22;96373;-66
2023/06/02 10:47:38;;;;;;;;;9.00;8.60;;;;;28.26;30.12;98571.63;7683898;22;96477;-66
2023/06/02 10:50:54;;;;;;;;;12.00;11.60;;;;;28.37;30.38;98562.53;7698117;22;96483;-66
2023/06/02 10:54:14;;;;;;;;;11.00;10.00;;;;;28.30;29.88;98567.81;7670458;22;96261;-66
2023/06/02 10:57:53;;;;;;;;;9.60;9.00;;;;;28.18;29.87;98567.00;7696851;22;96261;-65
2023/06/02 11:00:56;;;;;;;;;11.60;10.60;;;;;28.12;30.23;98563.66;7668003;22;96920;-66
2023/06/02 11:04:26;;;;;;;;;9.00;8.00;;;;;27.95;30.20;98575.72;7666350;22;98566;-65
2023/06/02 11:07:30;;;;;;;;;9.00;8.00;;;;;27.94;29.98;98570.53;7695777;22;96843;-66
2023/06/02 11:10:44;;;;;;;;;9.80;9.00;;;;;28.02;29.71;98572.38;7696261;22;96335;-66
2023/06/02 11:13:58;;;;;;;;;10.00;9.00;;;;;28.08;29.54;98576.56;7697899;22;96359;-66
2023/06/02 11:17:30;;;;;;;;;8.00;7.00;;;;;28.12;29.46;98574.75;7671915;22;96481;-66
2023/06/02 11:20:35;;;;;;;;;25.00;24.00;;;;;28.05;29.26;98566.16;7699658;22;97060;-66
2023/06/02 11:23:42;;;;;;;;;10.00;7.00;;;;;28.17;30.08;98570.94;7699418;22;96802;-66
2023/06/02 11:26:48;;;;;;;;;9.60;9.00;;;;;28.25;29.47;98578.31;7672840;22;96284;-66
2023/06/02 11:30:16;;;;;;;;;9.60;9.60;;;;;28.49;28.48;98564.50;7670938;22;96641;-66
2023/06/02 11:33:19;;;;;;;;;10.00;9.50;;;;;28.91;29.39;98562.25;7698654;22;96252;-67
2023/06/02 11:36:28;;;;;;;;;11.00;10.00;;;;;29.23;28.55;98565.97;7690101;22;96346;-66
2023/06/02 11:39:31;;;;;;;;;10.50;9.00;;;;;29.36;28.03;98572.34;7699174;22;97428;-66
2023/06/02 11:42:36;;;;;;;;;12.00;11.00;;;;;29.16;27.24;98565.78;7699043;22;96719;-66
2023/06/02 11:45:40;;;;;;;;;10.00;9.40;;;;;29.25;27.71;98572.81;7699027;22;96541;-66
2023/06/02 11:48:44;;;;;;;;;9.00;8.00;;;;;29.22;28.40;98567.94;7699740;22;96265;-66
2023/06/02 11:51:47;;;;;;;;;8.00;8.00;;;;;29.55;27.49;98589.16;7697749;22;98018;-66
2023/06/02 11:54:52;;;;;;;;;10.00;9.00;;;;;29.67;27.13;98576.00;7698930;22;96539;-66
2023/06/02 11:58:20;;;;;;;;;9.00;7.75;;;;;29.72;27.31;98574.94;7698727;22;96585;-66
2023/06/02 12:01:30;;;;;;;;;11.00;11.00;;;;;29.63;26.59;98594.56;7698525;22;96379;-66
2023/06/02 12:04:42;;;;;;;;;11.00;11.00;;;;;29.32;27.43;98582.53;7697273;22;97460;-66
2023/06/02 12:07:46;;;;;;;;;10.80;9.80;;;;;29.03;27.67;98586.41;7723218;22;96801;-66
2023/06/02 12:10:50;;;;;;;;;11.40;11.40;;;;;28.88;27.77;98581.59;7698953;22;96236;-66
2023/06/02 12:13:57;;;;;;;;;9.60;9.00;;;;;29.15;28.35;98572.50;7698575;22;96124;-66
2023/06/02 12:17:05;;;;;;;;;12.60;12.60;;;;;29.14;27.85;98573.66;7697332;22;96449;-66
2023/06/02 12:20:10;;;;;;;;;8.60;8.60;;;;;29.38;27.62;98564.44;7698984;22;96332;-66
2023/06/02 12:23:13;;;;;;;;;9.80;9.00;;;;;29.58;27.05;98577.31;7696205;22;96580;-66
2023/06/02 12:26:17;;;;;;;;;12.00;11.40;;;;;29.61;27.23;98574.66;7697205;22;96305;-66
2023/06/02 12:29:20;;;;;;;;;9.50;9.50;;;;;29.67;26.72;98572.41;7696048;22;96422;-66
2023/06/02 12:32:29;;;;;;;;;10.00;9.00;;;;;29.39;26.62;98582.72;7695867;22;96289;-66
2023/06/02 12:35:32;;;;;;;;;8.20;8.20;;;;;29.40;26.60;98576.03;7698313;22;96518;-66
2023/06/02 12:38:36;;;;;;;;;9.00;9.00;;;;;29.56;26.75;98577.69;7698725;22;96442;-66
2023/06/02 12:41:39;;;;;;;;;6.00;6.00;;;;;29.71;26.87;98574.13;7698973;22;96234;-66
2023/06/02 12:44:43;;;;;;;;;7.40;7.00;;;;;29.87;26.90;98571.38;7697105;22;96664;-65
2023/06/02 12:47:48;;;;;;;;;7.20;7.20;;;;;29.75;25.96;98576.22;7699726;22;96402;-66
2023/06/02 12:50:51;;;;;;;;;11.00;10.00;;;;;29.34;26.16;98569.91;7671305;22;96485;-66
2023/06/02 12:53:55;;;;;;;;;9.20;8.00;;;;;29.25;25.86;98575.59;7671546;22;96878;-66
2023/06/02 12:56:58;;;;;;;;;11.00;10.00;;;;;29.15;26.15;98578.84;7698453;22;96209;-66
2023/06/02 13:00:03;;;;;;;;;8.00;8.00;;;;;29.27;26.46;98576.03;7699116;22;96336;-66
2023/06/02 13:03:10;;;;;;;;;7.75;7.00;;;;;29.29;26.24;98572.91;7671231;22;96063;-67
2023/06/02 13:06:18;;;;;;;;;10.00;9.00;;;;;29.28;26.50;98580.44;7672027;22;96398;-66
2023/06/02 13:09:21;;;;;;;;;6.80;6.00;;;;;29.25;26.82;98574.78;7698562;22;96682;-65
2023/06/02 13:12:25;;;;;;;;;10.00;8.00;;;;;29.23;26.72;98577.09;7699027;22;96427;-65
2023/06/02 13:15:28;;;;;;;;;8.00;8.00;;;;;29.19;26.90;98588.09;7698656;22;96924;-65
2023/06/02 13:18:33;;;;;;;;;8.00;7.00;;;;;29.07;27.06;98584.56;7696564;22;96231;-64
2023/06/02 13:21:36;;;;;;;;;11.50;10.00;;;;;28.94;26.89;98580.97;7696048;22;96337;-65
2023/06/02 13:24:40;;;;;;;;;9.00;9.00;;;;;28.79;27.02;98582.50;7697458;22;96545;-65
2023/06/02 13:27:43;;;;;;;;;8.00;7.50;;;;;28.67;27.37;98584.47;7698444;22;96411;-64
2023/06/02 13:30:47;;;;;;;;;10.60;10.00;;;;;28.45;27.18;98594.03;7698003;22;96277;-64
2023/06/02 13:33:51;;;;;;;;;9.25;9.25;;;;;28.19;26.64;98594.41;7671284;22;96270;-65
2023/06/02 13:36:55;;;;;;;;;10.00;9.00;;;;;27.95;27.33;98600.66;7695229;22;96599;-65
2023/06/02 13:39:58;;;;;;;;;8.50;8.50;;;;;27.78;27.36;98600.84;7697578;22;96189;-65
2023/06/02 13:43:01;;;;;;;;;10.00;9.00;;;;;27.62;28.04;98610.13;7695733;22;98503;-65
2023/06/02 13:46:05;;;;;;;;;10.60;8.60;;;;;27.61;27.52;98616.84;7694101;22;96567;-65
2023/06/02 13:49:10;;;;;;;;;9.33;8.00;;;;;27.59;27.56;98600.56;7698061;22;96736;-64
2023/06/02 13:52:13;;;;;;;;;9.75;9.75;;;;;27.57;27.18;98605.59;7695580;22;96432;-64
2023/06/02 13:55:17;;;;;;;;;9.20;9.20;;;;;27.48;27.71;98605.66;7699148;22;96163;-65
2023/06/02 13:58:21;;;;;;;;;8.00;8.00;;;;;27.34;28.27;98620.94;7698675;22;96240;-64
2023/06/02 14:01:24;;;;;;;;;9.00;8.60;;;;;27.26;27.80;98622.63;7697079;22;97149;-65
2023/06/02 14:04:29;;;;;;;;;9.80;9.40;;;;;27.14;28.37;98622.56;7697813;22;96320;-64
2023/06/02 14:07:32;;;;;;;;;10.00;10.00;;;;;27.04;28.92;98622.94;7695247;22;96413;-64
2023/06/02 14:10:36;;;;;;;;;10.20;10.20;;;;;26.92;29.39;98629.22;7696585;22;96283;-64
2023/06/02 14:13:39;;;;;;;;;8.60;8.60;;;;;26.63;29.00;98627.22;7694890;22;96595;-65
2023/06/02 14:16:43;;;;;;;;;7.00;6.50;;;;;26.61;29.00;98624.00;7695649;22;96547;-65
2023/06/02 14:19:47;;;;;;;;;9.00;8.00;;;;;26.50;28.92;98638.50;7694898;22;96748;-64